createdAt,value
2018-06-23T00:00:50.444Z,3.70
2018-06-23T00:03:18.495Z,3.40
2018-06-23T00:05:46.541Z,3.05
2018-06-23T00:08:14.595Z,3.65
2018-06-23T00:10:42.657Z,3.95
2018-06-23T00:13:10.693Z,3.62
2018-06-23T00:15:38.736Z,4.65
2018-06-23T00:18:06.784Z,3.50
2018-06-23T00:20:34.828Z,4.00
2018-06-23T00:23:02.884Z,2.95
2018-06-23T00:25:36.261Z,3.55
2018-06-23T00:28:04.185Z,3.47
2018-06-23T00:30:32.236Z,3.27
2018-06-23T00:33:00.277Z,3.10
2018-06-23T00:35:28.317Z,3.80
2018-06-23T00:37:56.369Z,3.25
2018-06-23T00:40:24.416Z,3.62
2018-06-23T00:42:52.453Z,3.05
2018-06-23T00:45:20.505Z,3.70
2018-06-23T00:47:48.537Z,3.05
2018-06-23T00:50:16.816Z,3.25
2018-06-23T00:52:44.861Z,3.37
2018-06-23T00:55:12.901Z,3.17
2018-06-23T00:57:40.944Z,3.35
2018-06-23T01:00:08.984Z,4.20
2018-06-23T01:02:37.024Z,2.90
2018-06-23T01:05:05.201Z,4.55
2018-06-23T01:07:33.237Z,3.80
2018-06-23T01:10:01.284Z,4.05
2018-06-23T01:12:29.336Z,3.45
2018-06-23T01:14:57.376Z,4.20
2018-06-23T01:17:25.432Z,3.90
2018-06-23T01:19:53.469Z,3.58
2018-06-23T01:22:21.521Z,3.85
2018-06-23T01:24:49.649Z,2.90
2018-06-23T01:27:17.698Z,2.85
2018-06-23T01:29:45.741Z,3.25
2018-06-23T01:32:13.787Z,4.87
2018-06-23T01:34:41.838Z,4.30
2018-06-23T01:37:09.889Z,3.15
2018-06-23T01:39:37.920Z,3.25
2018-06-23T01:42:06.094Z,3.70
2018-06-23T01:44:34.132Z,3.90
2018-06-23T01:47:02.181Z,4.00
2018-06-23T01:49:30.224Z,4.22
2018-06-23T01:51:58.260Z,4.80
2018-06-23T01:54:26.305Z,5.10
2018-06-23T01:56:54.363Z,4.20
2018-06-23T01:59:22.413Z,5.15
2018-06-23T02:01:50.453Z,4.35
2018-06-23T02:04:18.501Z,5.40
2018-06-23T02:06:46.540Z,4.40
2018-06-23T02:09:14.603Z,5.50
2018-06-23T02:11:42.640Z,5.28
2018-06-23T02:14:16.165Z,5.80
2018-06-23T02:16:49.624Z,5.25
2018-06-23T02:19:23.052Z,5.45
2018-06-23T02:21:56.521Z,5.17
2018-06-23T02:24:30.013Z,6.22
2018-06-23T02:27:03.569Z,5.78
2018-06-23T02:29:36.917Z,6.20
2018-06-23T02:32:10.377Z,4.50
2018-06-23T02:34:43.968Z,4.65
2018-06-23T02:37:12.061Z,4.53
2018-06-23T02:39:40.133Z,3.67
2018-06-23T02:42:08.197Z,4.72
2018-06-23T02:44:36.265Z,4.28
2018-06-23T02:47:04.404Z,4.72
2018-06-23T02:49:32.473Z,5.10
2018-06-23T02:52:00.534Z,4.92
2018-06-23T02:54:28.592Z,4.33
2018-06-23T02:56:56.641Z,5.15
2018-06-23T02:59:24.693Z,5.08
2018-06-23T03:01:52.755Z,4.90
2018-06-23T03:04:20.804Z,5.30
2018-06-23T03:06:48.850Z,5.70
2018-06-23T03:09:16.897Z,5.65
2018-06-23T03:11:44.949Z,5.15
2018-06-23T03:14:12.988Z,5.50
2018-06-23T03:16:41.025Z,5.20
2018-06-23T03:19:09.089Z,4.62
2018-06-23T03:21:37.141Z,4.15
2018-06-23T03:24:05.208Z,4.08
2018-06-23T03:26:33.284Z,4.90
2018-06-23T03:29:01.340Z,6.12
2018-06-23T03:31:29.389Z,5.08
2018-06-23T03:33:57.424Z,5.62
2018-06-23T03:36:25.468Z,4.47
2018-06-23T03:38:53.514Z,4.72
2018-06-23T03:41:21.557Z,4.47
2018-06-23T03:43:49.668Z,5.30
2018-06-23T03:46:17.653Z,4.65
2018-06-23T03:48:45.992Z,4.92
2018-06-23T03:51:14.040Z,5.25
2018-06-23T03:53:42.077Z,4.65
2018-06-23T03:56:10.154Z,6.42
2018-06-23T03:58:38.193Z,5.85
2018-06-23T04:01:07.605Z,7.20
2018-06-23T04:03:35.988Z,7.80
2018-06-23T04:06:04.061Z,6.30
2018-06-23T04:08:32.568Z,7.72
2018-06-23T04:11:00.613Z,7.22
2018-06-23T04:13:28.648Z,8.45
2018-06-23T04:15:56.736Z,6.62
2018-06-23T04:18:24.764Z,7.70
2018-06-23T04:20:52.816Z,8.60
2018-06-23T04:23:20.874Z,7.03
2018-06-23T04:25:48.925Z,7.37
2018-06-23T04:28:16.964Z,8.23
2018-06-23T04:30:45.037Z,8.63
2018-06-23T04:33:13.080Z,7.62
2018-06-23T04:35:41.129Z,8.88
2018-06-23T04:38:09.227Z,8.30
2018-06-23T04:40:37.280Z,7.37
2018-06-23T04:43:05.344Z,8.73
2018-06-23T04:45:33.424Z,8.78
2018-06-23T04:48:01.498Z,8.33
2018-06-23T04:50:29.812Z,10.53
2018-06-23T04:52:57.916Z,8.83
2018-06-23T04:55:25.972Z,9.30
2018-06-23T04:57:54.153Z,9.68
2018-06-23T05:00:25.955Z,10.65
2018-06-23T05:02:55.158Z,10.30
2018-06-23T05:05:23.541Z,9.05
2018-06-23T05:07:51.606Z,9.38
2018-06-23T05:10:19.664Z,9.63
2018-06-23T05:12:47.745Z,9.68
2018-06-23T05:15:15.804Z,9.55
2018-06-23T05:17:43.905Z,10.48
2018-06-23T05:20:12.021Z,11.05
2018-06-23T05:22:40.277Z,10.30
2018-06-23T05:25:08.341Z,10.45
2018-06-23T05:27:36.437Z,10.20
2018-06-23T05:30:04.788Z,9.33
2018-06-23T05:32:32.873Z,9.95
2018-06-23T05:35:01.064Z,11.10
2018-06-23T05:37:29.141Z,9.15
2018-06-23T05:39:57.237Z,9.73
2018-06-23T05:42:25.305Z,9.43
2018-06-23T05:44:53.397Z,10.08
2018-06-23T05:47:21.684Z,9.30
2018-06-23T05:49:50.113Z,10.03
2018-06-23T05:52:18.198Z,8.68
2018-06-23T05:54:46.260Z,10.03
2018-06-23T05:57:14.355Z,10.55
2018-06-23T05:59:42.909Z,10.15
2018-06-23T06:02:11.553Z,10.58
2018-06-23T06:04:39.638Z,10.08
2018-06-23T06:07:07.740Z,10.55
2018-06-23T06:09:35.764Z,10.08
2018-06-23T06:12:04.005Z,9.95
2018-06-23T06:14:32.169Z,10.85
2018-06-23T06:17:38.450Z,10.43
2018-06-23T06:20:09.917Z,11.12
2018-06-23T06:22:39.228Z,10.20
2018-06-23T06:25:07.933Z,10.82
2018-06-23T06:27:36.216Z,11.57
2018-06-23T06:30:05.484Z,10.25
2018-06-23T06:32:33.552Z,10.90
2018-06-23T06:35:01.637Z,11.63
2018-06-23T06:37:29.708Z,9.58
2018-06-23T06:39:57.769Z,9.20
2018-06-23T06:42:25.825Z,9.50
2018-06-23T06:44:53.893Z,8.20
2018-06-23T06:47:21.961Z,9.23
2018-06-23T06:49:50.021Z,9.90
2018-06-23T06:52:18.081Z,8.90
2018-06-23T06:54:46.948Z,9.10
2018-06-23T06:57:15.079Z,9.63
2018-06-23T06:59:43.077Z,8.28
2018-06-23T07:02:11.145Z,7.92
2018-06-23T07:04:39.204Z,8.58
2018-06-23T07:07:07.272Z,9.05
2018-06-23T07:09:35.338Z,8.13
2018-06-23T07:12:03.409Z,8.08
2018-06-23T07:14:31.472Z,7.08
2018-06-23T07:16:59.521Z,7.55
2018-06-23T07:19:27.575Z,7.20
2018-06-23T07:21:55.636Z,7.15
2018-06-23T07:24:23.695Z,7.60
2018-06-23T07:26:51.799Z,7.10
2018-06-23T07:29:19.816Z,6.87
2018-06-23T07:31:47.897Z,7.10
2018-06-23T07:34:15.994Z,7.37
2018-06-23T07:36:44.013Z,7.55
2018-06-23T07:39:12.218Z,7.60
2018-06-23T07:41:40.249Z,7.15
2018-06-23T07:44:09.007Z,7.65
2018-06-23T07:46:37.102Z,6.58
2018-06-23T07:49:05.268Z,8.18
2018-06-23T07:51:33.553Z,7.22
2018-06-23T07:54:01.609Z,7.40
2018-06-23T07:56:29.645Z,8.13
2018-06-23T07:58:57.701Z,7.85
2018-06-23T08:01:25.748Z,6.50
2018-06-23T08:03:54.188Z,6.17
2018-06-23T08:06:22.228Z,5.53
2018-06-23T08:08:50.268Z,6.25
2018-06-23T08:11:18.309Z,5.10
2018-06-23T08:13:46.347Z,5.15
2018-06-23T08:16:14.389Z,5.47
2018-06-23T08:18:42.433Z,4.62
2018-06-23T08:21:10.473Z,4.90
2018-06-23T08:23:38.537Z,5.40
2018-06-23T08:26:06.601Z,5.33
2018-06-23T08:28:34.925Z,5.62
2018-06-23T08:31:03.328Z,5.70
2018-06-23T08:33:31.372Z,6.47
2018-06-23T08:35:59.421Z,5.70
2018-06-23T08:38:27.468Z,5.97
2018-06-23T08:40:55.521Z,4.95
2018-06-23T08:43:23.556Z,5.67
2018-06-23T08:45:51.609Z,4.85
2018-06-23T08:48:19.701Z,5.75
2018-06-23T08:50:47.752Z,5.83
2018-06-23T08:53:16.090Z,5.37
2018-06-23T08:55:44.141Z,4.60
2018-06-23T08:58:12.176Z,3.50
2018-06-23T09:00:40.230Z,6.08
2018-06-23T09:03:08.269Z,5.12
2018-06-23T09:05:36.349Z,3.85
2018-06-23T09:08:04.388Z,4.75
2018-06-23T09:10:32.440Z,3.92
2018-06-23T09:13:00.484Z,4.05
2018-06-23T09:15:28.518Z,4.75
2018-06-23T09:17:56.560Z,4.65
2018-06-23T09:20:24.608Z,4.45
2018-06-23T09:22:52.648Z,4.62
2018-06-23T09:25:20.708Z,5.40
2018-06-23T09:27:48.734Z,4.40
2018-06-23T09:30:16.788Z,4.30
2018-06-23T09:32:44.825Z,4.75
2018-06-23T09:35:12.869Z,4.37
2018-06-23T09:37:40.949Z,4.80
2018-06-23T09:40:08.997Z,3.87
2018-06-23T09:42:37.065Z,4.47
2018-06-23T09:45:05.137Z,4.60
2018-06-23T09:47:33.200Z,4.12
2018-06-23T09:50:01.265Z,4.40
2018-06-23T09:52:29.336Z,4.20
2018-06-23T09:54:57.566Z,4.58
2018-06-23T09:57:25.629Z,5.17
2018-06-23T09:59:53.681Z,4.85
2018-06-23T10:02:21.797Z,5.53
2018-06-23T10:04:49.808Z,3.87
2018-06-23T10:07:17.917Z,4.40
2018-06-23T10:09:45.933Z,3.98
2018-06-23T10:12:14.180Z,4.17
2018-06-23T10:14:42.242Z,4.20
2018-06-23T10:17:10.306Z,3.95
2018-06-23T10:19:38.357Z,3.80
2018-06-23T10:22:06.424Z,3.83
2018-06-23T10:24:34.500Z,3.70
2018-06-23T10:27:02.546Z,4.10
2018-06-23T10:29:30.596Z,3.55
2018-06-23T10:31:58.665Z,4.12
2018-06-23T10:34:26.729Z,3.70
2018-06-23T10:36:54.804Z,3.72
2018-06-23T10:39:22.840Z,4.22
2018-06-23T10:41:50.876Z,3.90
2018-06-23T10:44:18.920Z,3.80
2018-06-23T10:46:46.973Z,3.70
2018-06-23T10:49:15.046Z,3.90
2018-06-23T10:51:43.096Z,4.15
2018-06-23T10:54:11.134Z,3.80
2018-06-23T10:56:39.196Z,4.72
2018-06-23T10:59:07.234Z,4.28
2018-06-23T11:01:35.270Z,4.40
2018-06-23T11:04:03.321Z,3.45
2018-06-23T11:06:31.364Z,4.37
2018-06-23T11:08:59.410Z,3.85
2018-06-23T11:11:27.448Z,3.55
2018-06-23T11:13:55.488Z,3.80
2018-06-23T11:16:23.516Z,4.20
2018-06-23T11:18:51.556Z,3.95
2018-06-23T11:21:19.606Z,4.22
2018-06-23T11:23:47.700Z,4.03
2018-06-23T11:26:15.740Z,4.47
2018-06-23T11:28:43.784Z,3.98
2018-06-23T11:31:11.833Z,3.92
2018-06-23T11:33:39.879Z,3.92
2018-06-23T11:36:07.927Z,3.22
2018-06-23T11:38:35.972Z,3.62
2018-06-23T11:41:04.017Z,3.62
2018-06-23T11:43:32.157Z,3.92
2018-06-23T11:46:00.188Z,3.58
2018-06-23T11:48:28.240Z,3.67
2018-06-23T11:50:56.276Z,3.20
2018-06-23T11:53:24.345Z,2.80
2018-06-23T11:55:52.385Z,3.58
2018-06-23T11:58:20.432Z,2.87
2018-06-23T12:00:48.469Z,3.55
2018-06-23T12:03:16.567Z,3.00
2018-06-23T12:05:44.572Z,3.50
2018-06-23T12:08:12.612Z,2.83
2018-06-23T12:10:40.661Z,3.40
2018-06-23T12:13:08.704Z,2.72
2018-06-23T12:15:36.757Z,3.00
2018-06-23T12:18:04.792Z,2.50
2018-06-23T12:20:32.848Z,3.02
2018-06-23T12:23:00.884Z,2.90
2018-06-23T12:25:28.933Z,3.45
2018-06-23T12:27:57.010Z,2.17
2018-06-23T12:30:25.120Z,2.47
2018-06-23T12:32:53.089Z,2.22
2018-06-23T12:35:21.145Z,2.75
2018-06-23T12:37:49.192Z,3.75
2018-06-23T12:40:17.237Z,2.50
2018-06-23T12:42:45.289Z,2.33
2018-06-23T12:45:13.324Z,2.60
2018-06-23T12:47:41.364Z,3.20
2018-06-23T12:50:09.442Z,2.75
2018-06-23T12:52:37.461Z,2.30
2018-06-23T12:55:05.497Z,2.50
2018-06-23T12:57:33.597Z,2.60
2018-06-23T13:00:01.649Z,3.20
2018-06-23T13:02:29.699Z,2.65
2018-06-23T13:04:57.763Z,2.70
2018-06-23T13:07:25.797Z,2.72
2018-06-23T13:09:53.849Z,2.37
2018-06-23T13:12:21.901Z,2.50
2018-06-23T13:14:49.933Z,2.87
2018-06-23T13:17:18.068Z,2.85
2018-06-23T13:19:46.108Z,2.90
2018-06-23T13:22:14.185Z,3.45
2018-06-23T13:24:42.216Z,3.37
2018-06-23T13:27:10.301Z,3.20
2018-06-23T13:29:38.344Z,3.58
2018-06-23T13:32:06.431Z,3.45
2018-06-23T13:34:34.495Z,3.72
2018-06-23T13:37:03.064Z,3.67
2018-06-23T13:39:31.211Z,3.80
2018-06-23T13:41:59.245Z,4.10
2018-06-23T13:44:27.313Z,3.55
2018-06-23T13:46:55.372Z,3.30
2018-06-23T13:49:23.469Z,2.70
2018-06-23T13:51:51.538Z,3.17
2018-06-23T13:54:19.609Z,3.40
2018-06-23T13:56:47.668Z,3.40
2018-06-23T13:59:15.737Z,3.40
2018-06-23T14:01:43.821Z,4.70
2018-06-23T14:04:11.899Z,3.50
2018-06-23T14:06:39.971Z,3.67
2018-06-23T14:09:09.397Z,3.50
2018-06-23T14:11:37.526Z,4.47
2018-06-23T14:14:05.616Z,4.12
2018-06-23T14:16:33.837Z,3.77
2018-06-23T14:19:01.908Z,4.25
2018-06-23T14:21:29.985Z,4.15
2018-06-23T14:23:58.104Z,4.15
2018-06-23T14:26:26.173Z,4.15
2018-06-23T14:28:54.289Z,4.75
2018-06-23T14:31:22.434Z,4.70
2018-06-23T14:33:50.433Z,4.12
2018-06-23T14:36:18.492Z,4.28
2018-06-23T14:38:46.540Z,4.25
2018-06-23T14:41:14.786Z,4.00
2018-06-23T14:43:42.886Z,4.00
2018-06-23T14:46:10.953Z,4.75
2018-06-23T14:48:38.993Z,4.12
2018-06-23T14:51:07.061Z,4.05
2018-06-23T14:53:35.095Z,3.25
2018-06-23T14:56:03.148Z,3.90
2018-06-23T14:58:31.187Z,3.62
2018-06-23T15:00:59.248Z,4.20
2018-06-23T15:03:27.308Z,3.77
2018-06-23T15:05:55.256Z,4.33
2018-06-23T15:08:34.870Z,4.58
2018-06-23T15:11:14.452Z,4.12
2018-06-23T15:13:42.488Z,3.65
2018-06-23T15:16:10.548Z,4.15
2018-06-23T15:18:38.608Z,4.70
2018-06-23T15:21:06.654Z,3.52
2018-06-23T15:23:34.720Z,4.00
2018-06-23T15:26:02.768Z,4.55
2018-06-23T15:28:30.804Z,4.12
2018-06-23T15:30:58.844Z,5.30
2018-06-23T15:33:26.885Z,4.53
2018-06-23T15:35:54.937Z,4.87
2018-06-23T15:38:23.345Z,5.10
2018-06-23T15:40:51.401Z,4.87
2018-06-23T15:43:19.429Z,4.50
2018-06-23T15:45:47.480Z,5.20
2018-06-23T15:48:15.521Z,4.40
2018-06-23T15:50:43.573Z,4.65
2018-06-23T15:53:11.613Z,5.10
2018-06-23T15:55:39.776Z,5.47
2018-06-23T15:58:07.825Z,4.70
2018-06-23T16:00:35.877Z,4.70
2018-06-23T16:03:03.912Z,4.95
2018-06-23T16:05:31.952Z,4.70
2018-06-23T16:08:00.000Z,4.40
2018-06-23T16:10:28.041Z,4.90
2018-06-23T16:12:56.088Z,4.20
2018-06-23T16:15:24.140Z,4.05
2018-06-23T16:17:52.217Z,5.15
2018-06-23T16:20:20.313Z,4.15
2018-06-23T16:22:48.605Z,4.10
2018-06-23T16:25:18.290Z,4.28
2018-06-23T16:27:46.332Z,3.35
2018-06-23T16:30:14.765Z,3.40
2018-06-23T16:32:42.814Z,3.90
2018-06-23T16:35:11.155Z,4.33
2018-06-23T16:37:38.949Z,4.22
2018-06-23T16:40:07.045Z,3.75
2018-06-23T16:42:35.117Z,3.80
2018-06-23T16:45:03.185Z,3.37
2018-06-23T16:47:31.258Z,3.92
2018-06-23T16:49:59.314Z,3.80
2018-06-23T16:52:27.414Z,4.15
2018-06-23T16:54:55.456Z,3.95
2018-06-23T16:57:23.525Z,3.65
2018-06-23T16:59:51.584Z,3.40
2018-06-23T17:02:19.660Z,3.15
2018-06-23T17:04:47.721Z,3.80
2018-06-23T17:07:15.822Z,3.90
2018-06-23T17:09:44.090Z,3.40
2018-06-23T17:12:12.354Z,3.83
2018-06-23T17:14:40.452Z,3.52
2018-06-23T17:17:08.615Z,3.72
2018-06-23T17:19:36.770Z,3.98
2018-06-23T17:22:04.753Z,3.47
2018-06-23T17:24:32.808Z,4.05
2018-06-23T17:27:00.909Z,3.40
2018-06-23T17:29:28.917Z,3.75
2018-06-23T17:31:56.973Z,3.22
2018-06-23T17:34:25.211Z,3.87
2018-06-23T17:36:53.418Z,3.40
2018-06-23T17:39:21.470Z,3.75
2018-06-23T17:41:49.535Z,3.40
2018-06-23T17:44:17.556Z,4.25
2018-06-23T17:46:45.601Z,4.03
2018-06-23T17:49:13.649Z,3.62
2018-06-23T17:51:41.685Z,3.35
2018-06-23T17:54:09.732Z,3.52
2018-06-23T17:56:37.773Z,4.40
2018-06-23T17:59:05.952Z,3.10
2018-06-23T18:01:34.186Z,2.80
2018-06-23T18:04:02.849Z,3.95
2018-06-23T18:06:30.944Z,3.40
2018-06-23T18:08:58.947Z,3.40
2018-06-23T18:11:27.205Z,3.87
2018-06-23T18:13:55.240Z,3.50
2018-06-23T18:16:23.284Z,3.10
2018-06-23T18:18:51.316Z,3.22
2018-06-23T18:21:19.392Z,3.22
2018-06-23T18:23:47.412Z,3.40
2018-06-23T18:26:15.453Z,2.92
2018-06-23T18:28:43.492Z,3.60
2018-06-23T18:31:11.524Z,3.95
2018-06-23T18:33:39.572Z,3.27
2018-06-23T18:36:07.629Z,3.35
2018-06-23T18:38:35.684Z,3.60
2018-06-23T18:41:03.786Z,3.30
2018-06-23T18:43:31.837Z,3.40
2018-06-23T18:45:59.896Z,3.70
2018-06-23T18:48:27.937Z,3.20
2018-06-23T18:50:56.009Z,3.08
2018-06-23T18:53:24.046Z,3.40
2018-06-23T18:55:52.104Z,3.50
2018-06-23T18:58:20.148Z,3.85
2018-06-23T19:00:48.194Z,3.37
2018-06-23T19:03:16.252Z,3.40
2018-06-23T19:05:44.385Z,3.45
2018-06-23T19:08:12.431Z,3.55
2018-06-23T19:10:40.488Z,3.75
2018-06-23T19:13:15.390Z,3.70
2018-06-23T19:15:43.431Z,3.67
2018-06-23T19:18:11.462Z,3.55
2018-06-23T19:20:39.501Z,3.30
2018-06-23T19:23:07.652Z,3.90
2018-06-23T19:25:35.704Z,3.85
2018-06-23T19:28:03.758Z,4.20
2018-06-23T19:30:31.812Z,3.42
2018-06-23T19:33:00.034Z,4.20
2018-06-23T19:35:28.216Z,3.70
2018-06-23T19:37:56.269Z,4.72
2018-06-23T19:40:24.330Z,3.83
2018-06-23T19:42:52.368Z,4.58
2018-06-23T19:45:20.441Z,4.50
2018-06-23T19:47:48.476Z,4.72
2018-06-23T19:50:16.519Z,4.45
2018-06-23T19:52:44.707Z,5.10
2018-06-23T19:55:12.748Z,5.37
2018-06-23T19:57:40.796Z,4.30
2018-06-23T20:00:08.997Z,4.10
2018-06-23T20:02:37.062Z,3.95
2018-06-23T20:05:05.136Z,4.45
2018-06-23T20:07:33.532Z,4.40
2018-06-23T20:10:01.573Z,5.45
2018-06-23T20:12:29.679Z,4.40
2018-06-23T20:14:57.500Z,5.30
2018-06-23T20:17:25.597Z,5.05
2018-06-23T20:19:53.858Z,5.00
2018-06-23T20:22:21.957Z,4.17
2018-06-23T20:24:50.018Z,4.78
2018-06-23T20:27:18.118Z,4.83
2018-06-23T20:29:46.169Z,6.08
2018-06-23T20:32:14.241Z,5.40
2018-06-23T20:34:42.298Z,5.35
2018-06-23T20:37:10.342Z,5.05
2018-06-23T20:39:38.414Z,5.00
2018-06-23T20:42:06.469Z,4.67
2018-06-23T20:44:34.536Z,4.25
2018-06-23T20:47:02.582Z,5.78
2018-06-23T20:49:30.645Z,5.30
2018-06-23T20:51:58.743Z,4.28
2018-06-23T20:54:26.827Z,5.42
2018-06-23T20:56:54.859Z,6.80
2018-06-23T20:59:22.928Z,5.35
2018-06-23T21:01:51.168Z,5.30
2018-06-23T21:04:19.208Z,4.62
2018-06-23T21:06:47.249Z,5.40
2018-06-23T21:09:15.297Z,5.20
2018-06-23T21:11:43.352Z,5.28
2018-06-23T21:14:11.405Z,4.90
2018-06-23T21:16:39.437Z,5.45
2018-06-23T21:19:07.373Z,4.60
2018-06-23T21:21:35.470Z,5.00
2018-06-23T21:24:03.496Z,5.45
2018-06-23T21:26:31.544Z,5.47
2018-06-23T21:28:59.587Z,4.22
2018-06-23T21:31:27.621Z,5.80
2018-06-23T21:33:55.673Z,5.17
2018-06-23T21:36:23.709Z,5.50
2018-06-23T21:38:51.789Z,4.97
2018-06-23T21:41:19.860Z,4.78
2018-06-23T21:43:47.913Z,5.00
2018-06-23T21:46:15.968Z,5.03
2018-06-23T21:48:44.020Z,5.47
2018-06-23T21:51:12.080Z,5.12
2018-06-23T21:53:40.137Z,5.22
2018-06-23T21:56:08.200Z,5.55
2018-06-23T21:58:36.248Z,5.58
2018-06-23T22:01:04.317Z,4.92
2018-06-23T22:03:32.364Z,5.12
2018-06-23T22:06:00.436Z,5.40
2018-06-23T22:08:28.488Z,5.53
2018-06-23T22:10:56.560Z,5.50
2018-06-23T22:13:24.615Z,5.78
2018-06-23T22:15:52.673Z,6.42
2018-06-23T22:18:20.738Z,5.70
2018-06-23T22:20:48.792Z,5.42
2018-06-23T22:23:16.852Z,5.80
2018-06-23T22:25:44.912Z,4.95
2018-06-23T22:28:12.956Z,5.83
2018-06-23T22:30:41.016Z,5.87
2018-06-23T22:33:09.152Z,5.67
2018-06-23T22:35:37.222Z,5.40
2018-06-23T22:38:05.313Z,6.20
2018-06-23T22:40:33.352Z,5.42
2018-06-23T22:43:01.393Z,5.22
2018-06-23T22:45:29.440Z,5.53
2018-06-23T22:47:57.477Z,5.30
2018-06-23T22:50:25.509Z,5.97
2018-06-23T22:52:53.561Z,5.42
2018-06-23T22:55:21.597Z,5.90
2018-06-23T22:57:49.640Z,4.78
2018-06-23T23:00:17.680Z,6.35
2018-06-23T23:02:45.720Z,5.92
2018-06-23T23:05:13.755Z,6.15
2018-06-23T23:07:41.817Z,5.95
2018-06-23T23:10:10.768Z,6.42
2018-06-23T23:12:38.974Z,6.83
2018-06-23T23:15:07.057Z,6.17
2018-06-23T23:17:35.096Z,6.83
2018-06-23T23:20:03.149Z,6.60
2018-06-23T23:22:31.506Z,6.55
2018-06-23T23:24:59.548Z,7.42
2018-06-23T23:27:27.383Z,6.72
2018-06-23T23:29:55.553Z,7.15
2018-06-23T23:32:23.605Z,6.53
2018-06-23T23:34:51.821Z,7.08
2018-06-23T23:37:20.017Z,6.45
2018-06-23T23:39:48.401Z,6.72
2018-06-23T23:42:16.449Z,6.65
2018-06-23T23:44:44.275Z,6.10
2018-06-23T23:47:12.335Z,6.67
2018-06-23T23:49:40.365Z,6.28
2018-06-23T23:52:08.437Z,6.58
2018-06-23T23:54:36.469Z,6.12
2018-06-23T23:57:04.515Z,6.62
2018-06-23T23:59:32.567Z,5.95
